Delta Virtual Airport Information Service

Calgary International Airport

ICAO: CYYC Country: Canada
Latitude: 51.1139 Longitude: -114.02
Latest Arrival : WJA1519 (KIWA-CYYC) Latest Departure : WJA202 (CYYC-CYWG)


WX CaptureLIVE
Data provided by noaa.gov | Fetched at 10:18:13

METAR : CYYC 151500Z CCA 30017G22KT 10SM FEW027 FEW043 SCT170 BKN280 20/11 A2989 RMK SF1SC2AC1CI4 SF TR DIST SH SSW - NW PRESRR SLP106 DENSITY ALT 5100FT

TAF : CYYC 151505Z 1515/1612 32015KT P6SM FEW020 FEW060 BKN160 TEMPO 1515/1518 VRB15G25KT P6SM VCTS SCT020 SCT060CB BKN160 FM151800 31012KT P6SM SCT080 FM152000 19008KT P6SM -SHRA BKN080 PROB30 1520/1524 VRB20G30KT 3SM TSRA BKN080CB FM160000 23008KT P6SM SCT090 BECMG 1602/1604 33006KT FM160600 29006KT P6SM SCT140 BECMG 1610/1612 27008KT RMK NXT FCST BY 151800Z


Runway Data for CYYC
Data provided by openaviationdata.com

Runway ID Mag Var Hdg Length Elevation Surface ILS Freq ILS Id ILS Slope
7 17 73° 6187 ft 3556 ft Asphalt -- -- --
10 17 103° 7983 ft 3556 ft Asphalt -- -- --
16 17 163° 12659 ft 3556 ft Asphalt 109.3 IEM 3
25 17 253° 6187 ft 3556 ft Asphalt -- -- --
28 17 283° 7983 ft 3556 ft Asphalt 110.9 IAQ 3
34 17 343° 12659 ft 3556 ft Asphalt 111.5 IYC 3

Calgary International Airport, Canada
Use only for reference purposes



Not for navigational purposes.